Time;durP1;ratioP1;P1;durP2;ratioP2;P2;SDS_P1;SDS_P2;PMS_P1;PMS_P2;Temp;Humidity;BMP_temperature;BMP_pressure;BME280_temperature;BME280_humidity;BME280_pressure;Samples;Min_cycle;Max_cycle;Signal;HPM_P1;HPM_P2
2023/04/23 00:01:19;;;;;;;;;;;;;;;;;;5092482;28;19920;-63
2023/04/23 00:03:45;;;;;;;;;;;;;;;;;;5094095;28;19920;-63
2023/04/23 00:06:11;;;;;;;;;;;;;;;;;;5111977;28;20364;-63
2023/04/23 00:08:37;;;;;;;;;;;;;;;;;;5080548;28;20272;-63
2023/04/23 00:11:03;;;;;;;;;;;;;;;;;;5114559;28;19920;-63
2023/04/23 00:13:29;;;;;;;;;;;;;;;;;;5109788;28;19924;-62
2023/04/23 00:15:55;;;;;;;;;;;;;;;;;;5111861;28;20612;-62
2023/04/23 00:18:21;;;;;;;;;;;;;;;;;;5078589;28;19923;-62
2023/04/23 00:20:47;;;;;;;;;;;;;;;;;;5114351;28;19958;-62
2023/04/23 00:23:13;;;;;;;;;;;;;;;;;;5094836;28;19932;-63
2023/04/23 00:25:38;;;;;;;;;;;;;;;;;;5110579;28;19969;-63
2023/04/23 00:28:04;;;;;;;;;;;;;;;;;;5115079;28;19920;-63
2023/04/23 00:30:31;;;;;;;;;;;;;;;;;;5093274;28;19927;-63
2023/04/23 00:32:57;;;;;;;;;;;;;;;;;;5112801;28;19931;-63
2023/04/23 00:35:22;;;;;;;;;;;;;;;;;;5113025;28;19924;-63
2023/04/23 00:37:48;;;;;;;;;;;;;;;;;;5110504;28;20015;-63
2023/04/23 00:40:14;;;;;;;;;;;;;;;;;;5094598;28;19923;-63
2023/04/23 00:42:40;;;;;;;;;;;;;;;;;;5111646;28;19924;-63
2023/04/23 00:45:07;;;;;;;;;;;;;;;;;;5113017;28;19920;-63
2023/04/23 00:47:33;;;;;;;;;;;;;;;;;;5114453;28;20010;-61
2023/04/23 00:49:59;;;;;;;;;;;;;;;;;;5110410;28;20037;-61
2023/04/23 00:52:25;;;;;;;;;;;;;;;;;;5113483;28;20388;-62
2023/04/23 00:54:51;;;;;;;;;;;;;;;;;;5112480;28;20307;-62
2023/04/23 00:57:17;;;;;;;;;;;;;;;;;;5108654;28;19924;-62
2023/04/23 00:59:42;;;;;;;;;;;;;;;;;;5094164;28;20381;-62
2023/04/23 01:02:08;;;;;;;;;;;;;;;;;;5113051;28;19920;-62
2023/04/23 01:04:35;;;;;;;;;;;;;;;;;;5108728;28;19931;-63
2023/04/23 01:07:01;;;;;;;;;;;;;;;;;;5106665;28;19935;-62
2023/04/23 01:09:27;;;;;;;;;;;;;;;;;;5108091;28;19923;-62
2023/04/23 01:11:53;;;;;;;;;;;;;;;;;;5112351;28;20439;-62
2023/04/23 01:14:18;;;;;;;;;;;;;;;;;;5107766;28;19926;-63
2023/04/23 01:16:45;;;;;;;;;;;;;;;;;;5092002;28;19928;-62
2023/04/23 01:19:11;;;;;;;;;;;;;;;;;;5108269;28;19927;-62
2023/04/23 01:21:40;;;;;;;;;;;;;;;;;;5110455;28;19920;-63
2023/04/23 01:24:06;;;;;;;;;;;;;;;;;;5106013;28;20356;-62
2023/04/23 01:26:31;;;;;;;;;;;;;;;;;;5093999;28;20010;-62
2023/04/23 01:28:57;;;;;;;;;;;;;;;;;;5109475;28;19919;-63
2023/04/23 01:31:23;;;;;;;;;;;;;;;;;;5105564;28;21390;-64
2023/04/23 01:33:50;;;;;;;;;;;;;;;;;;5093270;28;19919;-63
2023/04/23 01:36:15;;;;;;;;;;;;;;;;;;5090897;28;19924;-63
2023/04/23 01:38:41;;;;;;;;;;;;;;;;;;5109164;28;20007;-63
2023/04/23 01:41:07;;;;;;;;;;;;;;;;;;5094291;28;19920;-63
2023/04/23 01:43:33;;;;;;;;;;;;;;;;;;5105026;28;20015;-63
2023/04/23 01:45:59;;;;;;;;;;;;;;;;;;5107584;28;19927;-63
2023/04/23 01:48:25;;;;;;;;;;;;;;;;;;5103999;28;20377;-63
2023/04/23 01:50:51;;;;;;;;;;;;;;;;;;5109462;28;20384;-62
2023/04/23 01:53:17;;;;;;;;;;;;;;;;;;5109361;28;19977;-62
2023/04/23 01:55:43;;;;;;;;;;;;;;;;;;5105471;28;19928;-63
2023/04/23 01:58:09;;;;;;;;;;;;;;;;;;5110727;28;20323;-63
2023/04/23 02:00:35;;;;;;;;;;;;;;;;;;5110340;28;19924;-63
2023/04/23 02:03:01;;;;;;;;;;;;;;;;;;5094136;28;19962;-61
2023/04/23 02:05:27;;;;;;;;;;;;;;;;;;5111754;28;20309;-62
2023/04/23 02:07:53;;;;;;;;;;;;;;;;;;5090091;28;19964;-62
2023/04/23 02:10:19;;;;;;;;;;;;;;;;;;5089294;28;19923;-62
2023/04/23 02:12:45;;;;;;;;;;;;;;;;;;5075910;28;19927;-62
2023/04/23 02:15:11;;;;;;;;;;;;;;;;;;5108656;28;19928;-62
2023/04/23 02:17:38;;;;;;;;;;;;;;;;;;5109809;28;20425;-62
2023/04/23 02:20:05;;;;;;;;;;;;;;;;;;5092293;28;19919;-62
2023/04/23 02:22:31;;;;;;;;;;;;;;;;;;5111404;28;20265;-62
2023/04/23 02:24:57;;;;;;;;;;;;;;;;;;5102791;28;19930;-62
2023/04/23 02:27:23;;;;;;;;;;;;;;;;;;5093813;28;19927;-62
2023/04/23 02:29:49;;;;;;;;;;;;;;;;;;5093187;28;19924;-62
2023/04/23 02:32:15;;;;;;;;;;;;;;;;;;5072459;28;19923;-62
2023/04/23 02:34:41;;;;;;;;;;;;;;;;;;5104721;28;19923;-62
2023/04/23 02:37:07;;;;;;;;;;;;;;;;;;5098881;28;20044;-62
2023/04/23 02:39:33;;;;;;;;;;;;;;;;;;5073136;28;19927;-62
2023/04/23 02:41:59;;;;;;;;;;;;;;;;;;5108109;28;20011;-62
2023/04/23 02:44:25;;;;;;;;;;;;;;;;;;5088586;28;20349;-62
2023/04/23 02:46:51;;;;;;;;;;;;;;;;;;5070245;28;19926;-62
2023/04/23 02:49:18;;;;;;;;;;;;;;;;;;5074893;28;19930;-62
2023/04/23 02:51:44;;;;;;;;;;;;;;;;;;5106836;28;19923;-63
2023/04/23 02:54:10;;;;;;;;;;;;;;;;;;5089954;28;19972;-63
2023/04/23 02:56:36;;;;;;;;;;;;;;;;;;5084488;28;20357;-63
2023/04/23 02:59:02;;;;;;;;;;;;;;;;;;5087989;28;20346;-63
2023/04/23 03:01:28;;;;;;;;;;;;;;;;;;5089369;28;19924;-62
2023/04/23 03:03:54;;;;;;;;;;;;;;;;;;5108227;28;19931;-62
2023/04/23 03:06:20;;;;;;;;;;;;;;;;;;5072164;28;19976;-63
2023/04/23 03:08:46;;;;;;;;;;;;;;;;;;5071273;28;20321;-62
2023/04/23 03:11:12;;;;;;;;;;;;;;;;;;5111463;28;19926;-62
2023/04/23 03:13:37;;;;;;;;;;;;;;;;;;5108075;28;19946;-62
2023/04/23 03:16:03;;;;;;;;;;;;;;;;;;5110492;28;19920;-62
2023/04/23 03:18:29;;;;;;;;;;;;;;;;;;5112405;28;20057;-62
2023/04/23 03:20:55;;;;;;;;;;;;;;;;;;5093800;28;19919;-61
2023/04/23 03:23:21;;;;;;;;;;;;;;;;;;5094092;28;19966;-62
2023/04/23 03:25:47;;;;;;;;;;;;;;;;;;5095133;28;19972;-62
2023/04/23 03:28:13;;;;;;;;;;;;;;;;;;5113766;28;19924;-62
2023/04/23 03:30:39;;;;;;;;;;;;;;;;;;5110238;28;19927;-62
2023/04/23 03:33:05;;;;;;;;;;;;;;;;;;5079516;28;19934;-62
2023/04/23 03:35:31;;;;;;;;;;;;;;;;;;5102829;28;19960;-62
2023/04/23 03:37:57;;;;;;;;;;;;;;;;;;5113409;28;19957;-62
2023/04/23 03:40:22;;;;;;;;;;;;;;;;;;5095597;28;20280;-62
2023/04/23 03:42:48;;;;;;;;;;;;;;;;;;5115038;28;19923;-62
2023/04/23 03:45:15;;;;;;;;;;;;;;;;;;5110272;28;19977;-62
2023/04/23 03:47:41;;;;;;;;;;;;;;;;;;5113526;28;19927;-62
2023/04/23 03:50:07;;;;;;;;;;;;;;;;;;5093801;28;19932;-62
2023/04/23 03:52:33;;;;;;;;;;;;;;;;;;5112678;28;19919;-62
2023/04/23 03:54:59;;;;;;;;;;;;;;;;;;5109612;28;20388;-63
2023/04/23 03:57:25;;;;;;;;;;;;;;;;;;5112938;28;19927;-63
2023/04/23 03:59:51;;;;;;;;;;;;;;;;;;5113899;28;19919;-63
2023/04/23 04:02:17;;;;;;;;;;;;;;;;;;5113080;28;19926;-61
2023/04/23 04:04:44;;;;;;;;;;;;;;;;;;5100349;28;20407;-61
2023/04/23 04:07:10;;;;;;;;;;;;;;;;;;5051424;28;19931;-62
2023/04/23 04:09:36;;;;;;;;;;;;;;;;;;5073351;28;20281;-62
2023/04/23 04:12:03;;;;;;;;;;;;;;;;;;5087928;28;19932;-62
2023/04/23 04:14:29;;;;;;;;;;;;;;;;;;5090197;28;20477;-63
2023/04/23 04:16:55;;;;;;;;;;;;;;;;;;5090073;28;20335;-63
2023/04/23 04:19:21;;;;;;;;;;;;;;;;;;5089702;28;19928;-63
2023/04/23 04:21:47;;;;;;;;;;;;;;;;;;5087071;28;20285;-63
2023/04/23 04:24:13;;;;;;;;;;;;;;;;;;5072254;28;19928;-63
2023/04/23 04:26:39;;;;;;;;;;;;;;;;;;5070341;28;20338;-62
2023/04/23 04:29:05;;;;;;;;;;;;;;;;;;5071410;28;19920;-61
2023/04/23 04:31:31;;;;;;;;;;;;;;;;;;5089289;28;19972;-64
2023/04/23 04:33:57;;;;;;;;;;;;;;;;;;5057324;28;19920;-61
2023/04/23 04:36:24;;;;;;;;;;;;;;;;;;5089778;28;19943;-62
2023/04/23 04:38:50;;;;;;;;;;;;;;;;;;5090169;28;19969;-62
2023/04/23 04:41:16;;;;;;;;;;;;;;;;;;5072527;28;20121;-62
2023/04/23 04:43:43;;;;;;;;;;;;;;;;;;5074490;28;20048;-62
2023/04/23 04:46:10;;;;;;;;;;;;;;;;;;5085768;28;20576;-63
2023/04/23 04:48:36;;;;;;;;;;;;;;;;;;5089490;28;19967;-61
2023/04/23 04:51:02;;;;;;;;;;;;;;;;;;5071096;28;20373;-62
2023/04/23 04:53:28;;;;;;;;;;;;;;;;;;5087581;28;19990;-62
2023/04/23 04:55:54;;;;;;;;;;;;;;;;;;5089321;28;19973;-62
2023/04/23 04:58:20;;;;;;;;;;;;;;;;;;5088353;28;19931;-62
2023/04/23 05:00:50;;;;;;;;;;;;;;;;;;5084688;28;19945;-62
2023/04/23 05:03:16;;;;;;;;;;;;;;;;;;5092306;28;20489;-63
2023/04/23 05:05:42;;;;;;;;;;;;;;;;;;5091901;28;19920;-63
2023/04/23 05:08:08;;;;;;;;;;;;;;;;;;5081008;28;19935;-63
2023/04/23 05:10:34;;;;;;;;;;;;;;;;;;5090032;28;19926;-63
2023/04/23 05:13:00;;;;;;;;;;;;;;;;;;5092662;28;19920;-62
2023/04/23 05:15:26;;;;;;;;;;;;;;;;;;5072980;28;19920;-62
2023/04/23 05:17:52;;;;;;;;;;;;;;;;;;5092771;28;19935;-63
2023/04/23 05:20:18;;;;;;;;;;;;;;;;;;5091463;28;19924;-63
2023/04/23 05:22:44;;;;;;;;;;;;;;;;;;5083261;28;19920;-63
2023/04/23 05:25:10;;;;;;;;;;;;;;;;;;5093507;28;19930;-63
2023/04/23 05:27:36;;;;;;;;;;;;;;;;;;5089705;28;19925;-63
2023/04/23 05:30:02;;;;;;;;;;;;;;;;;;5084489;28;19931;-62
2023/04/23 05:32:28;;;;;;;;;;;;;;;;;;5064297;28;19973;-62
2023/04/23 05:34:55;;;;;;;;;;;;;;;;;;5048833;28;20016;-62
2023/04/23 05:37:20;;;;;;;;;;;;;;;;;;5079416;28;19958;-62
2023/04/23 05:39:46;;;;;;;;;;;;;;;;;;5067784;28;19975;-62
2023/04/23 05:42:12;;;;;;;;;;;;;;;;;;5053910;28;19927;-62
2023/04/23 05:44:40;;;;;;;;;;;;;;;;;;5084922;28;19926;-63
2023/04/23 05:47:07;;;;;;;;;;;;;;;;;;5072925;28;20417;-61
2023/04/23 05:49:33;;;;;;;;;;;;;;;;;;5092409;28;19927;-64
2023/04/23 05:51:59;;;;;;;;;;;;;;;;;;5091019;28;19924;-66
2023/04/23 05:54:25;;;;;;;;;;;;;;;;;;5073639;28;20025;-65
2023/04/23 05:56:51;;;;;;;;;;;;;;;;;;5092360;28;20025;-65
2023/04/23 05:59:17;;;;;;;;;;;;;;;;;;5085095;28;20023;-66
2023/04/23 06:01:43;;;;;;;;;;;;;;;;;;5074702;28;20563;-66
2023/04/23 06:04:09;;;;;;;;;;;;;;;;;;5092693;28;19926;-65
2023/04/23 06:06:35;;;;;;;;;;;;;;;;;;5111554;28;19930;-65
2023/04/23 06:09:01;;;;;;;;;;;;;;;;;;5108266;28;19924;-66
2023/04/23 06:11:27;;;;;;;;;;;;;;;;;;5111340;28;19924;-65
2023/04/23 06:13:52;;;;;;;;;;;;;;;;;;5091728;28;19924;-66
2023/04/23 06:16:18;;;;;;;;;;;;;;;;;;5097849;28;20326;-65
2023/04/23 06:18:44;;;;;;;;;;;;;;;;;;5115113;22;19928;-65
2023/04/23 06:21:10;;;;;;;;;;;;;;;;;;5099479;28;20007;-65
2023/04/23 06:23:36;;;;;;;;;;;;;;;;;;5110193;28;19926;-65
2023/04/23 06:26:03;;;;;;;;;;;;;;;;;;5101957;28;19920;-66
2023/04/23 06:28:29;;;;;;;;;;;;;;;;;;5099518;28;19946;-66
2023/04/23 06:30:54;;;;;;;;;;;;;;;;;;5111552;28;20411;-66
2023/04/23 06:33:20;;;;;;;;;;;;;;;;;;5111629;28;19926;-66
2023/04/23 06:35:46;;;;;;;;;;;;;;;;;;5110289;28;19928;-67
2023/04/23 06:38:12;;;;;;;;;;;;;;;;;;5097989;28;19947;-66
2023/04/23 06:40:38;;;;;;;;;;;;;;;;;;5104479;28;20329;-66
2023/04/23 06:43:04;;;;;;;;;;;;;;;;;;5101495;28;19946;-66
2023/04/23 06:45:30;;;;;;;;;;;;;;;;;;5091815;28;20646;-66
2023/04/23 06:47:56;;;;;;;;;;;;;;;;;;5111986;28;20447;-66
2023/04/23 06:50:22;;;;;;;;;;;;;;;;;;5083451;28;19972;-65
2023/04/23 06:52:48;;;;;;;;;;;;;;;;;;5096908;28;19920;-65
2023/04/23 06:55:14;;;;;;;;;;;;;;;;;;5111158;28;19932;-65
2023/04/23 06:57:40;;;;;;;;;;;;;;;;;;5114929;28;20392;-65
2023/04/23 07:00:09;;;;;;;;;;;;;;;;;;5111244;28;19972;-66
2023/04/23 07:02:35;;;;;;;;;;;;;;;;;;5095808;28;20064;-66
2023/04/23 07:05:01;;;;;;;;;;;;;;;;;;5116072;28;20446;-65
2023/04/23 07:07:27;;;;;;;;;;;;;;;;;;5112488;28;19919;-66
2023/04/23 07:09:53;;;;;;;;;;;;;;;;;;5114330;28;19924;-66
2023/04/23 07:12:19;;;;;;;;;;;;;;;;;;5109979;28;20656;-66
2023/04/23 07:14:45;;;;;;;;;;;;;;;;;;5094383;28;19928;-65
2023/04/23 07:17:10;;;;;;;;;;;;;;;;;;5112568;28;20369;-66
2023/04/23 07:19:36;;;;;;;;;;;;;;;;;;5109820;28;19978;-66
2023/04/23 07:22:02;;;;;;;;;;;;;;;;;;5112288;28;19996;-65
2023/04/23 07:24:28;;;;;;;;;;;;;;;;;;5111955;28;19955;-62
2023/04/23 07:26:54;;;;;;;;;;;;;;;;;;5113394;28;20011;-62
2023/04/23 07:29:20;;;;;;;;;;;;;;;;;;5091904;28;20271;-62
2023/04/23 07:31:47;;;;;;;;;;;;;;;;;;5095694;28;20031;-61
2023/04/23 07:34:13;;;;;;;;;;;;;;;;;;5113918;28;20221;-62
2023/04/23 07:36:38;;;;;;;;;;;;;;;;;;5093390;28;20010;-62
2023/04/23 07:39:04;;;;;;;;;;;;;;;;;;5092257;28;19927;-62
2023/04/23 07:41:30;;;;;;;;;;;;;;;;;;5075578;28;19971;-61
2023/04/23 07:43:56;;;;;;;;;;;;;;;;;;5112012;28;19973;-61
2023/04/23 07:46:22;;;;;;;;;;;;;;;;;;5110896;28;19955;-62
2023/04/23 07:48:48;;;;;;;;;;;;;;;;;;5114312;28;21434;-62
2023/04/23 07:51:14;;;;;;;;;;;;;;;;;;5067117;28;19937;-62
2023/04/23 07:53:40;;;;;;;;;;;;;;;;;;5109839;28;19951;-62
2023/04/23 07:56:06;;;;;;;;;;;;;;;;;;5094197;28;19959;-62
2023/04/23 07:58:33;;;;;;;;;;;;;;;;;;5113886;28;19924;-61
2023/04/23 08:00:59;;;;;;;;;;;;;;;;;;5100558;28;20010;-61
2023/04/23 08:03:25;;;;;;;;;;;;;;;;;;5108000;28;20022;-62
2023/04/23 08:05:51;;;;;;;;;;;;;;;;;;5111703;28;20373;-61
2023/04/23 08:08:17;;;;;;;;;;;;;;;;;;5093683;28;20369;-61
2023/04/23 08:10:43;;;;;;;;;;;;;;;;;;5113760;28;19923;-61
2023/04/23 08:13:09;;;;;;;;;;;;;;;;;;5114465;28;19941;-61
2023/04/23 08:15:35;;;;;;;;;;;;;;;;;;5090602;28;20425;-61
2023/04/23 08:18:01;;;;;;;;;;;;;;;;;;5076068;28;20006;-61
2023/04/23 08:20:27;;;;;;;;;;;;;;;;;;5096223;28;19927;-61
2023/04/23 08:22:54;;;;;;;;;;;;;;;;;;5108419;28;19927;-62
2023/04/23 08:25:20;;;;;;;;;;;;;;;;;;5111769;28;19964;-62
2023/04/23 08:27:46;;;;;;;;;;;;;;;;;;5107830;28;20014;-61
2023/04/23 08:30:12;;;;;;;;;;;;;;;;;;5113453;28;20008;-61
2023/04/23 08:32:38;;;;;;;;;;;;;;;;;;5113201;28;19935;-61
2023/04/23 08:35:04;;;;;;;;;;;;;;;;;;5114018;28;19924;-62
2023/04/23 08:37:30;;;;;;;;;;;;;;;;;;5106859;28;19930;-61
2023/04/23 08:39:56;;;;;;;;;;;;;;;;;;5074688;28;20004;-61
2023/04/23 08:42:21;;;;;;;;;;;;;;;;;;5088317;28;20487;-62
2023/04/23 08:44:47;;;;;;;;;;;;;;;;;;5110015;28;19927;-62
2023/04/23 08:47:13;;;;;;;;;;;;;;;;;;5110613;28;20283;-62
2023/04/23 08:49:39;;;;;;;;;;;;;;;;;;5090989;28;19924;-60
2023/04/23 08:52:05;;;;;;;;;;;;;;;;;;5087849;28;19919;-62
2023/04/23 08:54:31;;;;;;;;;;;;;;;;;;5093989;28;20038;-63
2023/04/23 08:56:57;;;;;;;;;;;;;;;;;;5111621;28;20027;-62
2023/04/23 08:59:23;;;;;;;;;;;;;;;;;;5111836;28;19928;-66
2023/04/23 09:01:49;;;;;;;;;;;;;;;;;;5111564;28;19941;-67
2023/04/23 09:04:15;;;;;;;;;;;;;;;;;;5090219;28;19928;-66
2023/04/23 09:06:41;;;;;;;;;;;;;;;;;;5092204;28;19920;-66
2023/04/23 09:09:07;;;;;;;;;;;;;;;;;;5084338;28;19920;-66
2023/04/23 09:11:33;;;;;;;;;;;;;;;;;;5110373;28;20518;-66
2023/04/23 09:14:00;;;;;;;;;;;;;;;;;;5080822;28;19924;-66
2023/04/23 09:16:25;;;;;;;;;;;;;;;;;;5109710;28;19976;-69
2023/04/23 09:18:51;;;;;;;;;;;;;;;;;;5090724;28;19919;-65
2023/04/23 09:21:17;;;;;;;;;;;;;;;;;;5105801;28;19935;-67
2023/04/23 09:23:43;;;;;;;;;;;;;;;;;;5107663;28;19935;-67
2023/04/23 09:26:09;;;;;;;;;;;;;;;;;;5088573;28;19924;-66
2023/04/23 09:28:35;;;;;;;;;;;;;;;;;;5108887;28;19919;-66
2023/04/23 09:31:01;;;;;;;;;;;;;;;;;;5110134;28;20590;-66
2023/04/23 09:33:27;;;;;;;;;;;;;;;;;;5107734;28;19994;-65
2023/04/23 09:35:53;;;;;;;;;;;;;;;;;;5107001;28;19988;-66
2023/04/23 09:38:19;;;;;;;;;;;;;;;;;;5089451;28;19973;-66
2023/04/23 09:40:45;;;;;;;;;;;;;;;;;;5104196;28;20674;-66
2023/04/23 09:43:11;;;;;;;;;;;;;;;;;;5102058;28;20391;-66
2023/04/23 09:45:36;;;;;;;;;;;;;;;;;;5086393;28;19919;-67
2023/04/23 09:48:02;;;;;;;;;;;;;;;;;;5104362;28;22396;-65
2023/04/23 09:50:28;;;;;;;;;;;;;;;;;;5105679;28;19923;-66
2023/04/23 09:52:55;;;;;;;;;;;;;;;;;;5110876;28;20383;-66
2023/04/23 09:55:21;;;;;;;;;;;;;;;;;;5094277;28;20314;-65
2023/04/23 09:57:47;;;;;;;;;;;;;;;;;;5094158;28;20015;-66
2023/04/23 10:00:13;;;;;;;;;;;;;;;;;;5107317;28;19931;-65
2023/04/23 10:02:40;;;;;;;;;;;;;;;;;;5090422;28;19920;-66
2023/04/23 10:05:06;;;;;;;;;;;;;;;;;;5073814;28;19927;-66
2023/04/23 10:07:32;;;;;;;;;;;;;;;;;;5087269;28;19923;-65
2023/04/23 10:09:58;;;;;;;;;;;;;;;;;;5106316;28;19945;-66
2023/04/23 10:12:24;;;;;;;;;;;;;;;;;;5090484;28;20385;-66
2023/04/23 10:14:52;;;;;;;;;;;;;;;;;;5108650;28;20015;-66
2023/04/23 10:17:18;;;;;;;;;;;;;;;;;;5104676;28;19930;-66
2023/04/23 10:19:44;;;;;;;;;;;;;;;;;;5103627;28;19924;-66
2023/04/23 10:22:10;;;;;;;;;;;;;;;;;;5104988;28;19919;-66
2023/04/23 10:24:36;;;;;;;;;;;;;;;;;;5104693;28;19923;-66
2023/04/23 10:27:02;;;;;;;;;;;;;;;;;;5106162;28;19920;-66
2023/04/23 10:29:28;;;;;;;;;;;;;;;;;;5105098;28;19927;-65
2023/04/23 10:31:54;;;;;;;;;;;;;;;;;;5089659;28;19923;-67
2023/04/23 10:34:20;;;;;;;;;;;;;;;;;;5079519;28;20474;-66
2023/04/23 10:36:46;;;;;;;;;;;;;;;;;;5105995;28;19919;-63
2023/04/23 10:39:12;;;;;;;;;;;;;;;;;;5101853;28;19927;-63
2023/04/23 10:41:38;;;;;;;;;;;;;;;;;;5111445;28;19924;-63
2023/04/23 10:44:04;;;;;;;;;;;;;;;;;;5104920;28;20030;-67
2023/04/23 10:46:30;;;;;;;;;;;;;;;;;;5089100;28;20451;-66
2023/04/23 10:48:56;;;;;;;;;;;;;;;;;;5109135;28;20022;-66
2023/04/23 10:51:22;;;;;;;;;;;;;;;;;;5110435;28;20315;-66
2023/04/23 10:53:48;;;;;;;;;;;;;;;;;;5108881;28;19927;-67
2023/04/23 10:56:14;;;;;;;;;;;;;;;;;;5111592;28;19962;-65
2023/04/23 10:58:40;;;;;;;;;;;;;;;;;;5089348;28;19924;-65
2023/04/23 11:01:06;;;;;;;;;;;;;;;;;;5101672;28;19945;-66
2023/04/23 11:03:32;;;;;;;;;;;;;;;;;;5111102;28;20357;-66
2023/04/23 11:05:58;;;;;;;;;;;;;;;;;;5111109;28;19973;-63
2023/04/23 11:08:24;;;;;;;;;;;;;;;;;;5112377;28;20026;-63
2023/04/23 11:10:50;;;;;;;;;;;;;;;;;;5110540;28;19920;-63
2023/04/23 11:13:15;;;;;;;;;;;;;;;;;;5089703;28;19919;-62
2023/04/23 11:15:41;;;;;;;;;;;;;;;;;;5099606;28;19979;-63
2023/04/23 11:18:07;;;;;;;;;;;;;;;;;;5111813;28;19926;-62
2023/04/23 11:20:33;;;;;;;;;;;;;;;;;;5088458;28;20642;-63
2023/04/23 11:22:59;;;;;;;;;;;;;;;;;;5091121;28;20336;-62
2023/04/23 11:25:29;;;;;;;;;;;;;;;;;;5090418;28;19926;-62
2023/04/23 11:27:55;;;;;;;;;;;;;;;;;;5089229;28;19927;-62
2023/04/23 11:30:21;;;;;;;;;;;;;;;;;;5089865;28;19920;-62
2023/04/23 11:32:47;;;;;;;;;;;;;;;;;;5083880;28;19920;-63
2023/04/23 11:35:13;;;;;;;;;;;;;;;;;;5090729;28;19928;-63
2023/04/23 11:37:42;;;;;;;;;;;;;;;;;;5093130;28;19943;-62
2023/04/23 11:40:12;;;;;;;;;;;;;;;;;;5086714;28;20361;-62
2023/04/23 11:42:38;;;;;;;;;;;;;;;;;;5082881;28;20273;-63
2023/04/23 11:45:04;;;;;;;;;;;;;;;;;;5084693;28;19920;-62
2023/04/23 11:47:31;;;;;;;;;;;;;;;;;;5088786;28;19928;-63
2023/04/23 11:49:57;;;;;;;;;;;;;;;;;;5091113;28;19920;-62
2023/04/23 11:52:23;;;;;;;;;;;;;;;;;;5089885;28;19973;-63
2023/04/23 11:54:49;;;;;;;;;;;;;;;;;;5093807;28;19928;-63
2023/04/23 11:57:15;;;;;;;;;;;;;;;;;;5088223;28;19921;-64
2023/04/23 11:59:41;;;;;;;;;;;;;;;;;;5095189;28;20018;-64
2023/04/23 12:02:07;;;;;;;;;;;;;;;;;;5094843;28;20538;-62
2023/04/23 12:04:33;;;;;;;;;;;;;;;;;;5095072;28;19924;-62
2023/04/23 12:06:58;;;;;;;;;;;;;;;;;;5092622;28;20287;-62
2023/04/23 12:09:25;;;;;;;;;;;;;;;;;;5092690;28;20308;-62
2023/04/23 12:11:51;;;;;;;;;;;;;;;;;;5092940;28;19920;-62
2023/04/23 12:14:16;;;;;;;;;;;;;;;;;;5083401;28;19930;-62
2023/04/23 12:16:42;;;;;;;;;;;;;;;;;;5089190;28;19920;-61
2023/04/23 12:19:08;;;;;;;;;;;;;;;;;;5094447;28;19959;-62
2023/04/23 12:21:34;;;;;;;;;;;;;;;;;;5095237;28;20684;-62
2023/04/23 12:24:00;;;;;;;;;;;;;;;;;;5111783;28;19923;-62
2023/04/23 12:26:26;;;;;;;;;;;;;;;;;;5112819;28;20276;-61
2023/04/23 12:28:52;;;;;;;;;;;;;;;;;;5071122;28;19927;-66
2023/04/23 12:31:18;;;;;;;;;;;;;;;;;;5101183;28;19923;-66
2023/04/23 12:33:44;;;;;;;;;;;;;;;;;;5110493;28;19923;-66
2023/04/23 12:36:10;;;;;;;;;;;;;;;;;;5089580;28;20273;-66
2023/04/23 12:38:37;;;;;;;;;;;;;;;;;;5103668;28;20006;-66
2023/04/23 12:41:03;;;;;;;;;;;;;;;;;;5103126;28;19931;-66
2023/04/23 12:43:29;;;;;;;;;;;;;;;;;;5111998;28;20271;-65
2023/04/23 12:45:55;;;;;;;;;;;;;;;;;;5105012;28;19977;-64
2023/04/23 12:48:21;;;;;;;;;;;;;;;;;;5105348;28;19924;-66
2023/04/23 12:50:47;;;;;;;;;;;;;;;;;;5110437;28;19962;-62
2023/04/23 12:53:15;;;;;;;;;;;;;;;;;;5110168;28;21313;-62
2023/04/23 12:55:43;;;;;;;;;;;;;;;;;;5111895;28;20261;-62
2023/04/23 12:58:09;;;;;;;;;;;;;;;;;;5094810;28;19969;-62
2023/04/23 13:00:38;;;;;;;;;;;;;;;;;;5107299;28;20349;-62
2023/04/23 13:03:04;;;;;;;;;;;;;;;;;;5108962;28;19973;-61
2023/04/23 13:05:30;;;;;;;;;;;;;;;;;;5092951;28;19965;-62
2023/04/23 13:07:55;;;;;;;;;;;;;;;;;;5087857;28;19934;-62
2023/04/23 13:10:21;;;;;;;;;;;;;;;;;;5109795;28;19919;-62
2023/04/23 13:12:47;;;;;;;;;;;;;;;;;;5091553;28;20250;-62
2023/04/23 13:15:13;;;;;;;;;;;;;;;;;;5099731;28;19928;-62
2023/04/23 13:17:40;;;;;;;;;;;;;;;;;;5102344;28;19920;-62
2023/04/23 13:20:06;;;;;;;;;;;;;;;;;;5106195;28;19927;-62
2023/04/23 13:22:32;;;;;;;;;;;;;;;;;;5091216;28;19935;-62
2023/04/23 13:24:58;;;;;;;;;;;;;;;;;;5111205;28;19920;-62
2023/04/23 13:27:24;;;;;;;;;;;;;;;;;;5105415;28;19928;-62
2023/04/23 13:29:50;;;;;;;;;;;;;;;;;;5091278;28;19959;-62
2023/04/23 13:32:16;;;;;;;;;;;;;;;;;;5109138;28;19962;-62
2023/04/23 13:34:42;;;;;;;;;;;;;;;;;;5112107;28;20364;-62
2023/04/23 13:37:08;;;;;;;;;;;;;;;;;;5111777;28;19969;-62
2023/04/23 13:39:34;;;;;;;;;;;;;;;;;;5107542;28;19923;-62
2023/04/23 13:42:00;;;;;;;;;;;;;;;;;;5089579;28;19996;-62
2023/04/23 13:44:26;;;;;;;;;;;;;;;;;;5110957;28;20018;-62
2023/04/23 13:46:52;;;;;;;;;;;;;;;;;;5091501;28;20003;-62
2023/04/23 13:49:18;;;;;;;;;;;;;;;;;;5113058;28;19920;-62
2023/04/23 13:51:44;;;;;;;;;;;;;;;;;;5112265;28;19920;-62
2023/04/23 13:54:10;;;;;;;;;;;;;;;;;;5092163;28;19931;-62
2023/04/23 13:56:36;;;;;;;;;;;;;;;;;;5091799;28;19924;-62
2023/04/23 13:59:03;;;;;;;;;;;;;;;;;;5108535;28;19920;-62
2023/04/23 14:01:29;;;;;;;;;;;;;;;;;;5100223;28;19924;-62
2023/04/23 14:03:55;;;;;;;;;;;;;;;;;;5111163;28;19974;-62
2023/04/23 14:06:21;;;;;;;;;;;;;;;;;;5094933;28;20288;-61
2023/04/23 14:08:47;;;;;;;;;;;;;;;;;;5106867;28;19924;-62
2023/04/23 14:11:13;;;;;;;;;;;;;;;;;;5103787;28;19927;-62
2023/04/23 14:13:39;;;;;;;;;;;;;;;;;;5102449;28;20016;-62
2023/04/23 14:16:05;;;;;;;;;;;;;;;;;;5093044;28;19943;-61
2023/04/23 14:18:31;;;;;;;;;;;;;;;;;;5111685;28;19931;-62
2023/04/23 14:20:57;;;;;;;;;;;;;;;;;;5017204;22;20002;-61
2023/04/23 14:23:24;;;;;;;;;;;;;;;;;;4998215;28;19997;-61
2023/04/23 14:25:50;;;;;;;;;;;;;;;;;;5002403;28;20024;-61
2023/04/23 14:28:15;;;;;;;;;;;;;;;;;;4992893;28;20008;-62
2023/04/23 14:30:41;;;;;;;;;;;;;;;;;;4990011;28;19943;-62
2023/04/23 14:33:07;;;;;;;;;;;;;;;;;;4991627;28;19926;-61
2023/04/23 14:35:33;;;;;;;;;;;;;;;;;;4996591;28;19929;-62
2023/04/23 14:37:59;;;;;;;;;;;;;;;;;;4990761;28;20406;-62
2023/04/23 14:40:25;;;;;;;;;;;;;;;;;;5005274;28;19926;-62
2023/04/23 14:42:51;;;;;;;;;;;;;;;;;;5004175;28;19925;-62
2023/04/23 14:45:17;;;;;;;;;;;;;;;;;;4994340;28;19922;-62
2023/04/23 14:47:46;;;;;;;;;;;;;;;;;;4980232;28;19929;-62
2023/04/23 14:50:12;;;;;;;;;;;;;;;;;;5005522;28;19940;-66
2023/04/23 14:52:38;;;;;;;;;;;;;;;;;;4983289;28;19931;-66
2023/04/23 14:55:04;;;;;;;;;;;;;;;;;;4990602;28;19937;-66
2023/04/23 14:57:30;;;;;;;;;;;;;;;;;;4990487;28;19922;-66
2023/04/23 14:59:56;;;;;;;;;;;;;;;;;;4996446;28;19973;-66
2023/04/23 15:02:22;;;;;;;;;;;;;;;;;;5003297;28;19979;-66
2023/04/23 15:04:48;;;;;;;;;;;;;;;;;;5005056;28;20432;-66
2023/04/23 15:07:13;;;;;;;;;;;;;;;;;;5007533;28;20331;-67
2023/04/23 15:09:39;;;;;;;;;;;;;;;;;;5004823;28;19933;-67
2023/04/23 15:12:05;;;;;;;;;;;;;;;;;;5010136;28;20029;-66
2023/04/23 15:14:32;;;;;;;;;;;;;;;;;;5019241;28;19964;-66
2023/04/23 15:16:57;;;;;;;;;;;;;;;;;;4993869;28;20016;-66
2023/04/23 15:19:23;;;;;;;;;;;;;;;;;;5006460;28;20335;-66
2023/04/23 15:21:49;;;;;;;;;;;;;;;;;;5007373;28;19929;-65
2023/04/23 15:24:15;;;;;;;;;;;;;;;;;;5011523;28;19922;-66
2023/04/23 15:26:41;;;;;;;;;;;;;;;;;;5003193;28;19922;-67
2023/04/23 15:29:07;;;;;;;;;;;;;;;;;;5024351;28;19925;-65
2023/04/23 15:31:33;;;;;;;;;;;;;;;;;;5011352;28;19929;-67
2023/04/23 15:33:59;;;;;;;;;;;;;;;;;;4996339;28;19922;-66
2023/04/23 15:36:25;;;;;;;;;;;;;;;;;;5016446;28;19940;-66
2023/04/23 15:38:51;;;;;;;;;;;;;;;;;;5020043;28;20532;-66
2023/04/23 15:41:17;;;;;;;;;;;;;;;;;;5001720;28;20331;-66
2023/04/23 15:43:43;;;;;;;;;;;;;;;;;;4998810;28;19921;-66
2023/04/23 15:46:09;;;;;;;;;;;;;;;;;;5023927;28;19991;-67
2023/04/23 15:48:35;;;;;;;;;;;;;;;;;;5003756;28;19929;-67
2023/04/23 15:51:01;;;;;;;;;;;;;;;;;;5010766;28;19922;-67
2023/04/23 15:53:27;;;;;;;;;;;;;;;;;;4997115;28;19927;-67
2023/04/23 15:55:53;;;;;;;;;;;;;;;;;;5016066;28;20383;-66
2023/04/23 15:58:19;;;;;;;;;;;;;;;;;;5030948;28;19929;-67
2023/04/23 16:00:44;;;;;;;;;;;;;;;;;;5006985;28;20490;-67
2023/04/23 16:03:10;;;;;;;;;;;;;;;;;;5014333;28;19945;-66
2023/04/23 16:05:36;;;;;;;;;;;;;;;;;;5015013;28;19926;-65
2023/04/23 16:08:02;;;;;;;;;;;;;;;;;;4994231;28;19925;-65
2023/04/23 16:10:30;;;;;;;;;;;;;;;;;;5013574;28;20414;-66
2023/04/23 16:12:57;;;;;;;;;;;;;;;;;;5016199;28;19937;-67
2023/04/23 16:15:23;;;;;;;;;;;;;;;;;;5013196;28;20024;-65
2023/04/23 16:17:51;;;;;;;;;;;;;;;;;;5013953;28;20054;-66
2023/04/23 16:20:17;;;;;;;;;;;;;;;;;;5004650;28;20463;-65
2023/04/23 16:22:43;;;;;;;;;;;;;;;;;;5013710;28;19922;-65
2023/04/23 16:25:09;;;;;;;;;;;;;;;;;;5013635;28;19922;-66
2023/04/23 16:27:34;;;;;;;;;;;;;;;;;;4996284;28;19995;-65
2023/04/23 16:30:00;;;;;;;;;;;;;;;;;;4995646;28;19925;-65
2023/04/23 16:32:26;;;;;;;;;;;;;;;;;;5011100;28;19928;-65
2023/04/23 16:34:52;;;;;;;;;;;;;;;;;;5013641;28;19925;-66
2023/04/23 16:37:18;;;;;;;;;;;;;;;;;;5024829;28;19986;-66